sensor_id;sensor_type;location;lat;lon;timestamp;pressure;altitude;pressure_sealevel;temperature;humidity
38466;BME280;24244;51.950;5.902;2022-12-29T00:01:41;99944.81;;;11.37;91.51
38466;BME280;24244;51.950;5.902;2022-12-29T00:04:12;99937.44;;;11.39;91.30
38466;BME280;24244;51.950;5.902;2022-12-29T00:06:43;99946.25;;;11.39;91.15
38466;BME280;24244;51.950;5.902;2022-12-29T00:09:10;99924.97;;;11.39;91.32
38466;BME280;24244;51.950;5.902;2022-12-29T00:11:41;99912.47;;;11.40;91.40
38466;BME280;24244;51.950;5.902;2022-12-29T00:14:09;99915.97;;;11.41;91.21
38466;BME280;24244;51.950;5.902;2022-12-29T00:16:54;99900.00;;;11.41;91.38
38466;BME280;24244;51.950;5.902;2022-12-29T00:19:23;99909.00;;;11.39;90.94
38466;BME280;24244;51.950;5.902;2022-12-29T00:22:12;99895.69;;;11.39;91.13
38466;BME280;24244;51.950;5.902;2022-12-29T00:24:58;99886.69;;;11.41;91.09
38466;BME280;24244;51.950;5.902;2022-12-29T00:27:50;99887.72;;;11.39;91.00
38466;BME280;24244;51.950;5.902;2022-12-29T00:30:37;99889.34;;;11.41;91.00
38466;BME280;24244;51.950;5.902;2022-12-29T00:33:26;99885.88;;;11.40;91.20
38466;BME280;24244;51.950;5.902;2022-12-29T00:36:18;99883.22;;;11.40;91.17
38466;BME280;24244;51.950;5.902;2022-12-29T00:38:49;99876.06;;;11.41;90.88
38466;BME280;24244;51.950;5.902;2022-12-29T00:41:36;99868.28;;;11.39;90.97
38466;BME280;24244;51.950;5.902;2022-12-29T00:44:21;99856.59;;;11.40;91.08
38466;BME280;24244;51.950;5.902;2022-12-29T00:46:49;99855.59;;;11.41;91.05
38466;BME280;24244;51.950;5.902;2022-12-29T00:49:17;99855.38;;;11.43;90.98
38466;BME280;24244;51.950;5.902;2022-12-29T00:52:09;99850.63;;;11.45;90.75
38466;BME280;24244;51.950;5.902;2022-12-29T00:54:38;99852.25;;;11.46;91.02
38466;BME280;24244;51.950;5.902;2022-12-29T00:57:07;99857.38;;;11.47;90.79
38466;BME280;24244;51.950;5.902;2022-12-29T00:59:34;99855.75;;;11.46;91.04
38466;BME280;24244;51.950;5.902;2022-12-29T01:02:02;99852.06;;;11.47;90.83
38466;BME280;24244;51.950;5.902;2022-12-29T01:04:29;99832.41;;;11.48;90.80
38466;BME280;24244;51.950;5.902;2022-12-29T01:06:56;99843.88;;;11.49;90.72
38466;BME280;24244;51.950;5.902;2022-12-29T01:09:24;99834.84;;;11.50;90.65
38466;BME280;24244;51.950;5.902;2022-12-29T01:12:10;99833.00;;;11.50;90.67
38466;BME280;24244;51.950;5.902;2022-12-29T01:14:37;99834.03;;;11.49;90.75
38466;BME280;24244;51.950;5.902;2022-12-29T01:17:16;99838.34;;;11.50;90.69
38466;BME280;24244;51.950;5.902;2022-12-29T01:19:43;99819.72;;;11.50;90.50
38466;BME280;24244;51.950;5.902;2022-12-29T01:22:10;99824.78;;;11.52;90.44
38466;BME280;24244;51.950;5.902;2022-12-29T01:24:38;99824.78;;;11.52;90.69
38466;BME280;24244;51.950;5.902;2022-12-29T01:27:05;99823.97;;;11.51;90.68
38466;BME280;24244;51.950;5.902;2022-12-29T01:29:38;99821.56;;;11.50;90.47
38466;BME280;24244;51.950;5.902;2022-12-29T01:32:05;99817.88;;;11.51;90.43
38466;BME280;24244;51.950;5.902;2022-12-29T01:34:31;99824.22;;;11.50;90.65
38466;BME280;24244;51.950;5.902;2022-12-29T01:36:59;99819.91;;;11.49;90.52
38466;BME280;24244;51.950;5.902;2022-12-29T01:39:26;99811.13;;;11.48;90.54
38466;BME280;24244;51.950;5.902;2022-12-29T01:41:54;99808.66;;;11.47;90.69
38466;BME280;24244;51.950;5.902;2022-12-29T01:44:53;99801.72;;;11.46;90.55
38466;BME280;24244;51.950;5.902;2022-12-29T01:47:26;99802.72;;;11.45;90.73
38466;BME280;24244;51.950;5.902;2022-12-29T01:49:58;99809.13;;;11.44;90.82
38466;BME280;24244;51.950;5.902;2022-12-29T01:52:29;99794.38;;;11.41;90.47
38466;BME280;24244;51.950;5.902;2022-12-29T01:55:02;99801.34;;;11.42;90.65
38466;BME280;24244;51.950;5.902;2022-12-29T01:57:34;99801.53;;;11.41;90.59
38466;BME280;24244;51.950;5.902;2022-12-29T02:00:05;99796.00;;;11.42;90.74
38466;BME280;24244;51.950;5.902;2022-12-29T02:02:33;99792.31;;;11.43;90.57
38466;BME280;24244;51.950;5.902;2022-12-29T02:05:04;99800.31;;;11.43;90.65
38466;BME280;24244;51.950;5.902;2022-12-29T02:07:34;99807.47;;;11.43;90.76
38466;BME280;24244;51.950;5.902;2022-12-29T02:10:02;99800.31;;;11.43;90.96
38466;BME280;24244;51.950;5.902;2022-12-29T02:12:28;99804.56;;;11.44;90.84
38466;BME280;24244;51.950;5.902;2022-12-29T02:14:59;99793.94;;;11.44;90.93
38466;BME280;24244;51.950;5.902;2022-12-29T02:17:39;99789.44;;;11.45;90.75
38466;BME280;24244;51.950;5.902;2022-12-29T02:20:36;99797.19;;;11.46;90.68
38466;BME280;24244;51.950;5.902;2022-12-29T02:23:27;99797.00;;;11.48;91.02
38466;BME280;24244;51.950;5.902;2022-12-29T02:26:09;99789.63;;;11.50;90.56
38466;BME280;24244;51.950;5.902;2022-12-29T02:28:53;99797.97;;;11.53;90.67
38466;BME280;24244;51.950;5.902;2022-12-29T02:31:31;99791.63;;;11.54;90.55
38466;BME280;24244;51.950;5.902;2022-12-29T02:34:09;99788.75;;;11.56;90.67
38466;BME280;24244;51.950;5.902;2022-12-29T02:36:45;99769.09;;;11.57;90.31
38466;BME280;24244;51.950;5.902;2022-12-29T02:39:21;99780.75;;;11.56;90.39
38466;BME280;24244;51.950;5.902;2022-12-29T02:41:58;99772.56;;;11.57;90.23
38466;BME280;24244;51.950;5.902;2022-12-29T02:44:35;99768.06;;;11.58;90.23
38466;BME280;24244;51.950;5.902;2022-12-29T02:47:15;99775.00;;;11.59;89.82
38466;BME280;24244;51.950;5.902;2022-12-29T02:49:48;99764.13;;;11.60;89.89
38466;BME280;24244;51.950;5.902;2022-12-29T02:52:22;99761.25;;;11.62;89.50
38466;BME280;24244;51.950;5.902;2022-12-29T02:54:58;99764.75;;;11.62;89.79
38466;BME280;24244;51.950;5.902;2022-12-29T02:57:32;99762.91;;;11.63;89.15
38466;BME280;24244;51.950;5.902;2022-12-29T03:00:04;99762.69;;;11.64;89.18
38466;BME280;24244;51.950;5.902;2022-12-29T03:02:45;99774.16;;;11.65;88.83
38466;BME280;24244;51.950;5.902;2022-12-29T03:05:27;99765.09;;;11.66;88.70
38466;BME280;24244;51.950;5.902;2022-12-29T03:08:05;99758.75;;;11.67;88.29
38466;BME280;24244;51.950;5.902;2022-12-29T03:10:39;99747.91;;;11.68;88.14
38466;BME280;24244;51.950;5.902;2022-12-29T03:13:13;99746.06;;;11.69;88.15
38466;BME280;24244;51.950;5.902;2022-12-29T03:16:05;99750.34;;;11.70;87.84
38466;BME280;24244;51.950;5.902;2022-12-29T03:18:43;99746.66;;;11.71;87.71
38466;BME280;24244;51.950;5.902;2022-12-29T03:21:15;99739.25;;;11.73;87.66
38466;BME280;24244;51.950;5.902;2022-12-29T03:23:45;99763.84;;;11.75;87.73
38466;BME280;24244;51.950;5.902;2022-12-29T03:26:17;99760.38;;;11.74;87.57
38466;BME280;24244;51.950;5.902;2022-12-29T03:28:48;99751.34;;;11.75;87.89
38466;BME280;24244;51.950;5.902;2022-12-29T03:31:17;99735.16;;;11.77;87.22
38466;BME280;24244;51.950;5.902;2022-12-29T03:33:47;99751.94;;;11.77;87.07
38466;BME280;24244;51.950;5.902;2022-12-29T03:36:18;99751.94;;;11.77;87.02
38466;BME280;24244;51.950;5.902;2022-12-29T03:38:51;99743.75;;;11.79;87.03
38466;BME280;24244;51.950;5.902;2022-12-29T03:41:26;99751.75;;;11.79;86.92
38466;BME280;24244;51.950;5.902;2022-12-29T03:43:55;99745.34;;;11.80;87.22
38466;BME280;24244;51.950;5.902;2022-12-29T03:46:21;99754.16;;;11.81;86.95
38466;BME280;24244;51.950;5.902;2022-12-29T03:48:50;99759.28;;;11.82;86.85
38466;BME280;24244;51.950;5.902;2022-12-29T03:51:16;99757.44;;;11.83;86.67
38466;BME280;24244;51.950;5.902;2022-12-29T03:53:44;99750.25;;;11.83;86.96
38466;BME280;24244;51.950;5.902;2022-12-29T03:56:11;99750.25;;;11.83;86.94
38466;BME280;24244;51.950;5.902;2022-12-29T03:58:37;99759.28;;;11.82;86.80
38466;BME280;24244;51.950;5.902;2022-12-29T04:01:06;99762.75;;;11.83;86.96
38466;BME280;24244;51.950;5.902;2022-12-29T04:03:33;99754.78;;;11.83;86.73
38466;BME280;24244;51.950;5.902;2022-12-29T04:06:01;99748.63;;;11.82;86.63
38466;BME280;24244;51.950;5.902;2022-12-29T04:08:29;99750.47;;;11.82;86.59
38466;BME280;24244;51.950;5.902;2022-12-29T04:10:56;99758.25;;;11.83;86.49
38466;BME280;24244;51.950;5.902;2022-12-29T04:13:22;99761.72;;;11.84;86.48
38466;BME280;24244;51.950;5.902;2022-12-29T04:15:50;99759.06;;;11.84;86.04
38466;BME280;24244;51.950;5.902;2022-12-29T04:18:17;99766.22;;;11.83;86.18
38466;BME280;24244;51.950;5.902;2022-12-29T04:20:44;99765.41;;;11.83;86.15
38466;BME280;24244;51.950;5.902;2022-12-29T04:23:28;99760.09;;;11.83;86.15
38466;BME280;24244;51.950;5.902;2022-12-29T04:25:55;99759.28;;;11.82;86.19
38466;BME280;24244;51.950;5.902;2022-12-29T04:28:22;99761.94;;;11.82;86.06
38466;BME280;24244;51.950;5.902;2022-12-29T04:30:49;99758.47;;;11.82;86.06
38466;BME280;24244;51.950;5.902;2022-12-29T04:33:16;99764.59;;;11.82;86.11
38466;BME280;24244;51.950;5.902;2022-12-29T04:35:45;99772.59;;;11.82;86.16
38466;BME280;24244;51.950;5.902;2022-12-29T04:38:12;99764.81;;;11.81;86.13
38466;BME280;24244;51.950;5.902;2022-12-29T04:40:42;99781.03;;;11.79;86.45
38466;BME280;24244;51.950;5.902;2022-12-29T04:43:09;99788.41;;;11.77;86.51
38466;BME280;24244;51.950;5.902;2022-12-29T04:45:36;99778.78;;;11.76;86.91
38466;BME280;24244;51.950;5.902;2022-12-29T04:48:05;99767.13;;;11.77;86.91
38466;BME280;24244;51.950;5.902;2022-12-29T04:50:32;99778.56;;;11.77;87.01
38466;BME280;24244;51.950;5.902;2022-12-29T04:52:59;99787.38;;;11.78;87.22
38466;BME280;24244;51.950;5.902;2022-12-29T04:55:25;99786.78;;;11.76;87.23
38466;BME280;24244;51.950;5.902;2022-12-29T04:57:53;99782.66;;;11.73;87.53
38466;BME280;24244;51.950;5.902;2022-12-29T05:00:20;99788.44;;;11.70;87.40
38466;BME280;24244;51.950;5.902;2022-12-29T05:02:47;99810.16;;;11.67;87.43
38466;BME280;24244;51.950;5.902;2022-12-29T05:05:14;99809.38;;;11.60;87.90
38466;BME280;24244;51.950;5.902;2022-12-29T05:07:41;99801.44;;;11.54;88.11
38466;BME280;24244;51.950;5.902;2022-12-29T05:10:08;99804.78;;;11.49;88.21
38466;BME280;24244;51.950;5.902;2022-12-29T05:12:36;99817.66;;;11.46;88.56
38466;BME280;24244;51.950;5.902;2022-12-29T05:15:07;99814.63;;;11.42;88.71
38466;BME280;24244;51.950;5.902;2022-12-29T05:17:34;99814.03;;;11.40;88.56
38466;BME280;24244;51.950;5.902;2022-12-29T05:20:01;99833.88;;;11.37;88.69
38466;BME280;24244;51.950;5.902;2022-12-29T05:22:28;99828.19;;;11.34;89.01
38466;BME280;24244;51.950;5.902;2022-12-29T05:24:55;99841.91;;;11.31;89.06
38466;BME280;24244;51.950;5.902;2022-12-29T05:27:22;99836.22;;;11.27;88.97
38466;BME280;24244;51.950;5.902;2022-12-29T05:29:48;99843.59;;;11.25;88.86
38466;BME280;24244;51.950;5.902;2022-12-29T05:32:17;99845.63;;;11.23;89.10
38466;BME280;24244;51.950;5.902;2022-12-29T05:34:44;99834.00;;;11.18;89.21
38466;BME280;24244;51.950;5.902;2022-12-29T05:37:12;99839.78;;;11.15;89.25
38466;BME280;24244;51.950;5.902;2022-12-29T05:39:39;99845.91;;;11.09;89.16
38466;BME280;24244;51.950;5.902;2022-12-29T05:42:06;99851.88;;;11.04;89.41
38466;BME280;24244;51.950;5.902;2022-12-29T05:44:33;99865.00;;;10.99;89.40
38466;BME280;24244;51.950;5.902;2022-12-29T05:47:00;99860.91;;;10.96;89.12
38466;BME280;24244;51.950;5.902;2022-12-29T05:49:28;99861.34;;;10.93;89.31
38466;BME280;24244;51.950;5.902;2022-12-29T05:51:56;99858.47;;;10.88;89.22
38466;BME280;24244;51.950;5.902;2022-12-29T05:54:23;99863.41;;;10.85;89.21
38466;BME280;24244;51.950;5.902;2022-12-29T05:56:50;99866.69;;;10.80;89.35
38466;BME280;24244;51.950;5.902;2022-12-29T05:59:17;99865.47;;;10.76;89.45
38466;BME280;24244;51.950;5.902;2022-12-29T06:01:44;99867.53;;;10.74;89.37
38466;BME280;24244;51.950;5.902;2022-12-29T06:04:11;99862.63;;;10.71;89.41
38466;BME280;24244;51.950;5.902;2022-12-29T06:06:39;99860.19;;;10.70;89.25
38466;BME280;24244;51.950;5.902;2022-12-29T06:09:09;99859.56;;;10.68;89.23
38466;BME280;24244;51.950;5.902;2022-12-29T06:11:36;99853.66;;;10.66;88.91
38466;BME280;24244;51.950;5.902;2022-12-29T06:14:04;99862.66;;;10.65;89.02
38466;BME280;24244;51.950;5.902;2022-12-29T06:16:30;99858.75;;;10.60;88.67
38466;BME280;24244;51.950;5.902;2022-12-29T06:18:57;99866.75;;;10.60;88.91
38466;BME280;24244;51.950;5.902;2022-12-29T06:21:25;99867.75;;;10.59;88.66
38466;BME280;24244;51.950;5.902;2022-12-29T06:23:54;99872.50;;;10.57;88.47
38466;BME280;24244;51.950;5.902;2022-12-29T06:26:21;99869.22;;;10.55;88.37
38466;BME280;24244;51.950;5.902;2022-12-29T06:28:47;99891.50;;;10.54;88.25
38466;BME280;24244;51.950;5.902;2022-12-29T06:31:15;99874.09;;;10.52;88.27
38466;BME280;24244;51.950;5.902;2022-12-29T06:33:43;99875.34;;;10.49;88.05
38466;BME280;24244;51.950;5.902;2022-12-29T06:36:15;99885.38;;;10.47;87.76
38466;BME280;24244;51.950;5.902;2022-12-29T06:38:42;99883.94;;;10.45;87.42
38466;BME280;24244;51.950;5.902;2022-12-29T06:41:11;99886.00;;;10.43;87.41
38466;BME280;24244;51.950;5.902;2022-12-29T06:43:37;99874.56;;;10.42;87.37
38466;BME280;24244;51.950;5.902;2022-12-29T06:46:05;99864.75;;;10.43;87.41
38466;BME280;24244;51.950;5.902;2022-12-29T06:48:32;99878.03;;;10.43;87.44
38466;BME280;24244;51.950;5.902;2022-12-29T06:50:58;99879.88;;;10.42;87.15
38466;BME280;24244;51.950;5.902;2022-12-29T06:53:25;99885.38;;;10.41;87.01
38466;BME280;24244;51.950;5.902;2022-12-29T06:55:53;99886.19;;;10.41;86.96
38466;BME280;24244;51.950;5.902;2022-12-29T06:58:21;99880.06;;;10.41;86.68
38466;BME280;24244;51.950;5.902;2022-12-29T07:00:47;99886.81;;;10.43;86.55
38466;BME280;24244;51.950;5.902;2022-12-29T07:03:15;99891.31;;;10.43;86.21
38466;BME280;24244;51.950;5.902;2022-12-29T07:05:42;99884.75;;;10.45;86.74
38466;BME280;24244;51.950;5.902;2022-12-29T07:08:09;99885.56;;;10.46;86.32
38466;BME280;24244;51.950;5.902;2022-12-29T07:10:36;99896.19;;;10.46;86.05
38466;BME280;24244;51.950;5.902;2022-12-29T07:13:05;99903.97;;;10.47;86.19
38466;BME280;24244;51.950;5.902;2022-12-29T07:15:36;99896.63;;;10.49;86.17
38466;BME280;24244;51.950;5.902;2022-12-29T07:18:03;99896.63;;;10.49;86.34
38466;BME280;24244;51.950;5.902;2022-12-29T07:20:30;99886.00;;;10.49;85.72
38466;BME280;24244;51.950;5.902;2022-12-29T07:22:57;99888.84;;;10.48;85.75
38466;BME280;24244;51.950;5.902;2022-12-29T07:25:24;99895.78;;;10.49;85.75
38466;BME280;24244;51.950;5.902;2022-12-29T07:27:51;99898.44;;;10.49;85.66
38466;BME280;24244;51.950;5.902;2022-12-29T07:30:17;99896.41;;;10.51;85.47
38466;BME280;24244;51.950;5.902;2022-12-29T07:32:46;99903.56;;;10.50;85.24
38466;BME280;24244;51.950;5.902;2022-12-29T07:35:13;99898.25;;;10.50;85.10
38466;BME280;24244;51.950;5.902;2022-12-29T07:37:40;99899.06;;;10.51;85.10
38466;BME280;24244;51.950;5.902;2022-12-29T07:40:09;99910.53;;;10.51;84.86
38466;BME280;24244;51.950;5.902;2022-12-29T07:42:36;99914.78;;;10.52;84.77
38466;BME280;24244;51.950;5.902;2022-12-29T07:45:03;99915.41;;;10.54;84.94
38466;BME280;24244;51.950;5.902;2022-12-29T07:47:30;99924.19;;;10.55;84.86
38466;BME280;24244;51.950;5.902;2022-12-29T07:49:58;99929.31;;;10.56;84.58
38466;BME280;24244;51.950;5.902;2022-12-29T07:52:30;99937.28;;;10.56;84.65
38466;BME280;24244;51.950;5.902;2022-12-29T07:54:57;99938.91;;;10.57;84.31
38466;BME280;24244;51.950;5.902;2022-12-29T07:57:24;99934.44;;;10.58;84.33
38466;BME280;24244;51.950;5.902;2022-12-29T07:59:57;99950.13;;;10.59;83.84
38466;BME280;24244;51.950;5.902;2022-12-29T08:02:26;99953.63;;;10.60;83.55
38466;BME280;24244;51.950;5.902;2022-12-29T08:04:53;99957.09;;;10.60;83.58
38466;BME280;24244;51.950;5.902;2022-12-29T08:07:21;99947.28;;;10.61;83.58
38466;BME280;24244;51.950;5.902;2022-12-29T08:09:48;99948.09;;;10.62;83.16
38466;BME280;24244;51.950;5.902;2022-12-29T08:12:15;99953.41;;;10.62;83.17
38466;BME280;24244;51.950;5.902;2022-12-29T08:14:42;99942.78;;;10.62;83.68
38466;BME280;24244;51.950;5.902;2022-12-29T08:17:09;99955.44;;;10.59;83.05
38466;BME280;24244;51.950;5.902;2022-12-29T08:19:36;99963.66;;;10.58;82.72
38466;BME280;24244;51.950;5.902;2022-12-29T08:22:03;99962.03;;;10.57;83.29
38466;BME280;24244;51.950;5.902;2022-12-29T08:24:31;99966.50;;;10.56;82.85
38466;BME280;24244;51.950;5.902;2022-12-29T08:26:58;99973.66;;;10.56;82.67
38466;BME280;24244;51.950;5.902;2022-12-29T08:29:41;99977.13;;;10.56;82.64
38466;BME280;24244;51.950;5.902;2022-12-29T08:32:09;99974.28;;;10.58;82.73
38466;BME280;24244;51.950;5.902;2022-12-29T08:34:39;99972.66;;;10.57;82.79
38466;BME280;24244;51.950;5.902;2022-12-29T08:37:06;99967.13;;;10.58;82.42
38466;BME280;24244;51.950;5.902;2022-12-29T08:39:36;99960.19;;;10.57;81.82
38466;BME280;24244;51.950;5.902;2022-12-29T08:42:03;99969.78;;;10.58;81.87
38466;BME280;24244;51.950;5.902;2022-12-29T08:44:30;99958.94;;;10.60;81.83
38466;BME280;24244;51.950;5.902;2022-12-29T08:46:57;99952.59;;;10.61;81.79
38466;BME280;24244;51.950;5.902;2022-12-29T08:49:23;99952.41;;;10.63;81.70
38466;BME280;24244;51.950;5.902;2022-12-29T08:51:50;99949.75;;;10.63;81.48
38466;BME280;24244;51.950;5.902;2022-12-29T08:54:17;99957.50;;;10.64;80.98
38466;BME280;24244;51.950;5.902;2022-12-29T08:56:45;99960.75;;;10.66;81.37
38466;BME280;24244;51.950;5.902;2022-12-29T08:59:12;99961.38;;;10.68;81.02
38466;BME280;24244;51.950;5.902;2022-12-29T09:01:38;99960.34;;;10.69;80.93
38466;BME280;24244;51.950;5.902;2022-12-29T09:04:09;99958.31;;;10.71;81.31
38466;BME280;24244;51.950;5.902;2022-12-29T09:06:42;99956.47;;;10.72;81.23
38466;BME280;24244;51.950;5.902;2022-12-29T09:09:09;99959.72;;;10.74;81.24
38466;BME280;24244;51.950;5.902;2022-12-29T09:11:36;99966.69;;;10.75;80.78
38466;BME280;24244;51.950;5.902;2022-12-29T09:14:05;99970.16;;;10.75;80.80
38466;BME280;24244;51.950;5.902;2022-12-29T09:16:33;99965.66;;;10.76;80.74
38466;BME280;24244;51.950;5.902;2022-12-29T09:19:00;99966.88;;;10.73;81.23
38466;BME280;24244;51.950;5.902;2022-12-29T09:21:27;99970.78;;;10.71;81.78
38466;BME280;24244;51.950;5.902;2022-12-29T09:23:54;99979.97;;;10.68;81.88
38466;BME280;24244;51.950;5.902;2022-12-29T09:26:21;99980.19;;;10.67;82.02
38466;BME280;24244;51.950;5.902;2022-12-29T09:28:49;99983.06;;;10.65;82.24
38466;BME280;24244;51.950;5.902;2022-12-29T09:31:19;99982.25;;;10.65;82.11
38466;BME280;24244;51.950;5.902;2022-12-29T09:33:47;99985.94;;;10.64;81.98
38466;BME280;24244;51.950;5.902;2022-12-29T09:36:16;99992.06;;;10.64;82.13
38466;BME280;24244;51.950;5.902;2022-12-29T09:38:43;100000.03;;;10.64;82.15
38466;BME280;24244;51.950;5.902;2022-12-29T09:41:15;100000.03;;;10.64;82.04
38466;BME280;24244;51.950;5.902;2022-12-29T09:43:53;99993.91;;;10.64;81.75
38466;BME280;24244;51.950;5.902;2022-12-29T09:46:26;100005.34;;;10.64;81.84
38466;BME280;24244;51.950;5.902;2022-12-29T09:49:09;100014.34;;;10.63;82.07
38466;BME280;24244;51.950;5.902;2022-12-29T09:51:45;100019.84;;;10.62;82.00
38466;BME280;24244;51.950;5.902;2022-12-29T09:54:24;100014.34;;;10.63;82.30
38466;BME280;24244;51.950;5.902;2022-12-29T09:56:55;100019.66;;;10.63;81.86
38466;BME280;24244;51.950;5.902;2022-12-29T09:59:25;100028.25;;;10.65;81.98
38466;BME280;24244;51.950;5.902;2022-12-29T10:01:58;100032.94;;;10.63;82.15
38466;BME280;24244;51.950;5.902;2022-12-29T10:04:30;100036.44;;;10.64;82.38
38466;BME280;24244;51.950;5.902;2022-12-29T10:07:04;100049.72;;;10.64;82.73
38466;BME280;24244;51.950;5.902;2022-12-29T10:10:03;100050.09;;;10.60;83.01
38466;BME280;24244;51.950;5.902;2022-12-29T10:12:51;100054.59;;;10.60;82.94
38466;BME280;24244;51.950;5.902;2022-12-29T10:15:33;100051.53;;;10.56;83.30
38466;BME280;24244;51.950;5.902;2022-12-29T10:18:18;100058.06;;;10.54;83.58
38466;BME280;24244;51.950;5.902;2022-12-29T10:20:49;100057.69;;;10.50;83.82
38466;BME280;24244;51.950;5.902;2022-12-29T10:23:27;100061.53;;;10.48;83.95
38466;BME280;24244;51.950;5.902;2022-12-29T10:25:57;100073.19;;;10.47;84.70
38466;BME280;24244;51.950;5.902;2022-12-29T10:28:34;100072.78;;;10.43;84.63
38466;BME280;24244;51.950;5.902;2022-12-29T10:31:05;100065.84;;;10.42;84.65
38466;BME280;24244;51.950;5.902;2022-12-29T10:33:39;100070.94;;;10.44;84.82
38466;BME280;24244;51.950;5.902;2022-12-29T10:36:13;100075.44;;;10.43;85.25
38466;BME280;24244;51.950;5.902;2022-12-29T10:38:48;100074.00;;;10.41;85.18
38466;BME280;24244;51.950;5.902;2022-12-29T10:41:25;100076.03;;;10.39;85.17
38466;BME280;24244;51.950;5.902;2022-12-29T10:43:54;100080.34;;;10.40;85.31
38466;BME280;24244;51.950;5.902;2022-12-29T10:46:29;100092.59;;;10.41;85.52
38466;BME280;24244;51.950;5.902;2022-12-29T10:49:00;100094.44;;;10.40;85.63
38466;BME280;24244;51.950;5.902;2022-12-29T10:51:35;100105.06;;;10.40;85.54
38466;BME280;24244;51.950;5.902;2022-12-29T10:54:05;100109.38;;;10.41;85.85
38466;BME280;24244;51.950;5.902;2022-12-29T10:56:41;100113.66;;;10.42;85.77
38466;BME280;24244;51.950;5.902;2022-12-29T10:59:15;100121.63;;;10.42;86.12
38466;BME280;24244;51.950;5.902;2022-12-29T11:01:52;100115.31;;;10.43;86.13
38466;BME280;24244;51.950;5.902;2022-12-29T11:04:39;100117.97;;;10.43;86.04
38466;BME280;24244;51.950;5.902;2022-12-29T11:07:13;100130.81;;;10.46;86.45
38466;BME280;24244;51.950;5.902;2022-12-29T11:09:45;100126.13;;;10.48;86.41
38466;BME280;24244;51.950;5.902;2022-12-29T11:12:22;100125.31;;;10.48;86.34
38466;BME280;24244;51.950;5.902;2022-12-29T11:15:02;100134.72;;;10.50;86.34
38466;BME280;24244;51.950;5.902;2022-12-29T11:17:30;100147.00;;;10.51;86.06
38466;BME280;24244;51.950;5.902;2022-12-29T11:20:28;100137.16;;;10.52;86.20
38466;BME280;24244;51.950;5.902;2022-12-29T11:22:55;100143.09;;;10.54;86.38
38466;BME280;24244;51.950;5.902;2022-12-29T11:25:22;100155.38;;;10.55;86.49
38466;BME280;24244;51.950;5.902;2022-12-29T11:27:55;100153.34;;;10.57;86.33
38466;BME280;24244;51.950;5.902;2022-12-29T11:30:24;100161.13;;;10.58;86.37
38466;BME280;24244;51.950;5.902;2022-12-29T11:32:52;100152.94;;;10.60;86.03
38466;BME280;24244;51.950;5.902;2022-12-29T11:35:31;100153.75;;;10.60;86.02
38466;BME280;24244;51.950;5.902;2022-12-29T11:38:00;100162.34;;;10.63;86.11
38466;BME280;24244;51.950;5.902;2022-12-29T11:40:28;100169.13;;;10.65;86.19
38466;BME280;24244;51.950;5.902;2022-12-29T11:42:58;100174.44;;;10.65;86.12
38466;BME280;24244;51.950;5.902;2022-12-29T11:45:31;100180.34;;;10.67;86.08
38466;BME280;24244;51.950;5.902;2022-12-29T11:48:05;100184.84;;;10.67;86.22
38466;BME280;24244;51.950;5.902;2022-12-29T11:50:40;100180.16;;;10.69;86.11
38466;BME280;24244;51.950;5.902;2022-12-29T11:53:15;100176.28;;;10.71;85.60
38466;BME280;24244;51.950;5.902;2022-12-29T11:55:53;100187.72;;;10.72;85.66
38466;BME280;24244;51.950;5.902;2022-12-29T11:58:28;100180.34;;;10.74;85.70
38466;BME280;24244;51.950;5.902;2022-12-29T12:00:56;100187.31;;;10.75;85.64
38466;BME280;24244;51.950;5.902;2022-12-29T12:03:26;100199.59;;;10.76;85.55
38466;BME280;24244;51.950;5.902;2022-12-29T12:05:57;100192.25;;;10.78;85.28
38466;BME280;24244;51.950;5.902;2022-12-29T12:08:34;100192.25;;;10.78;85.14
38466;BME280;24244;51.950;5.902;2022-12-29T12:11:06;100193.88;;;10.79;85.39
38466;BME280;24244;51.950;5.902;2022-12-29T12:13:40;100192.88;;;10.80;85.01
38466;BME280;24244;51.950;5.902;2022-12-29T12:16:13;100205.13;;;10.81;85.27
38466;BME280;24244;51.950;5.902;2022-12-29T12:18:47;100201.63;;;10.80;84.89
38466;BME280;24244;51.950;5.902;2022-12-29T12:21:31;100202.25;;;10.82;84.76
38466;BME280;24244;51.950;5.902;2022-12-29T12:24:21;100211.06;;;10.83;84.32
38466;BME280;24244;51.950;5.902;2022-12-29T12:26:59;100217.00;;;10.85;84.14
38466;BME280;24244;51.950;5.902;2022-12-29T12:29:35;100217.19;;;10.83;84.09
38466;BME280;24244;51.950;5.902;2022-12-29T12:32:12;100220.47;;;10.85;84.11
38466;BME280;24244;51.950;5.902;2022-12-29T12:34:43;100215.75;;;10.87;83.91
38466;BME280;24244;51.950;5.902;2022-12-29T12:37:29;100224.56;;;10.88;83.69
38466;BME280;24244;51.950;5.902;2022-12-29T12:40:16;100228.88;;;10.89;83.42
38466;BME280;24244;51.950;5.902;2022-12-29T12:42:51;100224.16;;;10.91;83.56
38466;BME280;24244;51.950;5.902;2022-12-29T12:45:45;100227.03;;;10.96;83.70
38466;BME280;24244;51.950;5.902;2022-12-29T12:48:30;100232.78;;;10.99;83.60
38466;BME280;24244;51.950;5.902;2022-12-29T12:51:07;100229.69;;;11.03;83.76
38466;BME280;24244;51.950;5.902;2022-12-29T12:53:56;100230.53;;;11.03;83.51
38466;BME280;24244;51.950;5.902;2022-12-29T12:56:46;100236.66;;;11.04;83.19
38466;BME280;24244;51.950;5.902;2022-12-29T12:59:28;100234.00;;;11.04;83.42
38466;BME280;24244;51.950;5.902;2022-12-29T13:02:06;100238.50;;;11.03;83.06
38466;BME280;24244;51.950;5.902;2022-12-29T13:05:09;100237.91;;;11.01;82.96
38466;BME280;24244;51.950;5.902;2022-12-29T13:08:01;100238.09;;;10.99;82.92
38466;BME280;24244;51.950;5.902;2022-12-29T13:10:39;100242.59;;;10.99;82.87
38466;BME280;24244;51.950;5.902;2022-12-29T13:13:36;100248.75;;;10.99;83.17
38466;BME280;24244;51.950;5.902;2022-12-29T13:16:14;100243.63;;;10.98;82.91
38466;BME280;24244;51.950;5.902;2022-12-29T13:18:52;100253.25;;;10.99;83.14
38466;BME280;24244;51.950;5.902;2022-12-29T13:21:30;100249.56;;;11.00;82.99
38466;BME280;24244;51.950;5.902;2022-12-29T13:24:04;100245.25;;;10.99;82.83